Time;durP1;ratioP1;P1;durP2;ratioP2;P2;SDS_P1;SDS_P2;PMS_P1;PMS_P2;Temp;Humidity;BMP_temperature;BMP_pressure;BME280_temperature;BME280_humidity;BME280_pressure;Samples;Min_cycle;Max_cycle;Signal;HPM_P1;HPM_P2
2023/12/23 00:03:55;;;;;;;26.55;19.75;;;;;;;3.30;100.00;100430.44;10424251;28;20048;-72
2023/12/23 00:08:55;;;;;;;30.58;20.15;;;;;;;3.42;100.00;100455.91;10408598;28;20045;-71
2023/12/23 00:13:56;;;;;;;24.75;22.48;;;;;;;3.53;100.00;100468.00;10413200;28;20049;-72
2023/12/23 00:18:56;;;;;;;28.27;25.17;;;;;;;3.46;100.00;100461.78;10430155;28;20037;-72
2023/12/23 00:23:57;;;;;;;29.73;26.63;;;;;;;2.68;100.00;100417.28;10464491;28;20464;-70
2023/12/23 00:28:57;;;;;;;36.17;33.03;;;;;;;2.71;100.00;100445.94;10467398;28;20049;-72
2023/12/23 00:33:58;;;;;;;40.22;36.28;;;;;;;2.70;100.00;100447.00;10463746;28;20045;-72
2023/12/23 00:38:58;;;;;;;40.13;36.00;;;;;;;2.69;100.00;100450.75;10462419;28;20040;-73
2023/12/23 00:43:59;;;;;;;38.40;34.78;;;;;;;2.56;100.00;100413.56;10459479;28;20049;-72
2023/12/23 00:48:59;;;;;;;38.95;35.00;;;;;;;2.87;100.00;100448.19;10438588;28;20106;-72
2023/12/23 00:54:00;;;;;;;38.25;34.75;;;;;;;2.87;100.00;100458.22;10465315;28;20084;-72
2023/12/23 00:59:00;;;;;;;36.83;33.17;;;;;;;2.92;100.00;100462.00;10479665;28;20052;-73
2023/12/23 01:04:01;;;;;;;38.85;35.35;;;;;;;2.99;100.00;100456.53;10480439;28;20075;-73
2023/12/23 01:09:01;;;;;;;40.38;36.80;;;;;;;3.01;100.00;100448.97;10480342;28;20052;-69
2023/12/23 01:14:02;;;;;;;40.03;36.80;;;;;;;2.99;100.00;100434.75;10463311;28;25001;-72
2023/12/23 01:19:03;;;;;;;40.65;37.20;;;;;;;2.92;100.00;100410.31;10464605;28;20040;-73
2023/12/23 01:24:04;;;;;;;41.63;37.88;;;;;;;2.95;100.00;100423.47;10462966;28;20048;-73
2023/12/23 01:29:04;;;;;;;38.95;35.83;;;;;;;2.96;100.00;100402.56;10446112;28;20052;-73
2023/12/23 01:34:05;;;;;;;39.72;35.58;;;;;;;3.18;100.00;100427.56;10476384;28;20044;-73
2023/12/23 01:39:05;;;;;;;40.80;35.92;;;;;;;2.77;100.00;100329.03;10461327;28;20048;-73
2023/12/23 01:44:05;;;;;;;29.88;27.17;;;;;;;3.51;100.00;100411.03;10442064;28;20033;-72
2023/12/23 01:49:06;;;;;;;29.52;26.40;;;;;;;3.53;100.00;100400.78;10461939;28;20045;-73
2023/12/23 01:54:07;;;;;;;28.92;26.23;;;;;;;3.62;100.00;100410.38;10461073;28;20045;-73
2023/12/23 01:59:08;;;;;;;30.13;27.13;;;;;;;3.62;100.00;100418.53;10463747;28;20057;-73
2023/12/23 02:04:08;;;;;;;30.27;27.38;;;;;;;3.66;100.00;100418.94;10462151;28;20049;-70
2023/12/23 02:09:10;;;;;;;30.65;27.60;;;;;;;3.60;100.00;100401.59;10463172;28;20041;-73
2023/12/23 02:14:16;;;;;;;28.27;25.95;;;;;;;3.50;100.00;100381.34;10477646;28;20041;-73
2023/12/23 02:19:16;;;;;;;31.83;25.65;;;;;;;3.69;100.00;100402.13;10460860;28;20029;-73
2023/12/23 02:24:16;;;;;;;28.38;26.20;;;;;;;3.79;100.00;100413.38;10461783;28;20033;-72
2023/12/23 02:29:17;;;;;;;28.70;26.02;;;;;;;3.84;100.00;100402.66;10459849;28;20025;-73
2023/12/23 02:34:18;;;;;;;26.25;24.02;;;;;;;3.89;100.00;100412.91;10434551;28;20037;-72
2023/12/23 02:39:18;;;;;;;23.98;21.75;;;;;;;3.91;100.00;100399.88;10451813;28;20033;-72
2023/12/23 02:44:19;;;;;;;21.67;19.50;;;;;;;3.97;100.00;100400.88;10459479;28;20052;-73
2023/12/23 02:49:19;;;;;;;18.38;16.25;;;;;;;4.09;100.00;100400.97;10460680;28;20037;-72
2023/12/23 02:54:20;;;;;;;22.20;17.65;;;;;;;4.08;100.00;100394.72;10458194;28;20183;-72
2023/12/23 02:59:20;;;;;;;21.88;20.15;;;;;;;4.10;100.00;100408.94;10444018;28;20045;-72
2023/12/23 03:04:20;;;;;;;26.10;23.65;;;;;;;4.12;100.00;100400.56;10474265;28;20156;-72
2023/12/23 03:09:21;;;;;;;23.88;22.33;;;;;;;4.10;100.00;100398.03;10451203;28;20041;-72
2023/12/23 03:14:22;;;;;;;24.52;22.52;;;;;;;4.07;100.00;100387.56;10429995;28;20029;-72
2023/12/23 03:19:22;;;;;;;26.98;24.70;;;;;;;4.10;100.00;100387.16;10438502;28;20032;-71
2023/12/23 03:24:23;;;;;;;30.80;28.40;;;;;;;4.06;100.00;100380.47;10441245;28;20048;-72
2023/12/23 03:29:23;;;;;;;32.53;29.25;;;;;;;4.09;100.00;100381.91;10442949;28;20436;-72
2023/12/23 03:34:23;;;;;;;36.25;33.53;;;;;;;4.05;100.00;100365.19;10459457;28;20401;-72
2023/12/23 03:39:24;;;;;;;36.67;33.80;;;;;;;4.00;100.00;100346.78;10432702;28;20496;-72
2023/12/23 03:44:24;;;;;;;37.33;34.55;;;;;;;3.90;100.00;100332.84;10424084;28;20657;-73
2023/12/23 03:49:25;;;;;;;35.80;33.13;;;;;;;3.92;100.00;100319.00;10440464;28;20044;-72
2023/12/23 03:54:25;;;;;;;38.28;35.58;;;;;;;3.92;100.00;100329.91;10458235;28;20048;-72
2023/12/23 03:59:26;;;;;;;36.45;32.85;;;;;;;3.92;100.00;100335.34;10442383;28;20063;-72
2023/12/23 04:04:26;;;;;;;33.00;30.50;;;;;;;3.84;100.00;100307.38;10440905;28;20064;-72
2023/12/23 04:09:27;;;;;;;34.95;32.58;;;;;;;3.92;100.00;100308.13;10455522;28;20033;-71
2023/12/23 04:14:28;;;;;;;35.38;32.58;;;;;;;3.83;100.00;100278.44;10438760;28;20068;-71
2023/12/23 04:19:28;;;;;;;35.30;32.72;;;;;;;3.82;100.00;100271.34;10473567;28;20041;-72
2023/12/23 04:24:29;;;;;;;35.03;32.53;;;;;;;3.83;100.00;100269.47;10458310;28;20520;-71
2023/12/23 04:29:30;;;;;;;36.67;33.88;;;;;;;3.81;100.00;100264.22;10441886;28;20055;-72
2023/12/23 04:34:30;;;;;;;37.03;33.97;;;;;;;3.78;100.00;100253.81;10455121;28;20048;-73
2023/12/23 04:39:31;;;;;;;37.70;35.25;;;;;;;3.72;100.00;100251.13;10454916;28;20064;-72
2023/12/23 04:44:31;;;;;;;37.28;34.88;;;;;;;3.70;100.00;100243.19;10439519;28;20037;-73
2023/12/23 04:49:31;;;;;;;35.60;33.20;;;;;;;3.66;100.00;100232.97;10457399;28;20044;-73
2023/12/23 04:54:32;;;;;;;32.72;30.80;;;;;;;3.62;100.00;100219.00;10439305;28;20041;-73
2023/12/23 04:59:33;;;;;;;33.88;31.83;;;;;;;3.63;100.00;100217.91;10432037;28;20068;-73
2023/12/23 05:04:33;;;;;;;35.15;33.17;;;;;;;3.47;100.00;100181.22;10455657;28;20052;-73
2023/12/23 05:09:35;;;;;;;32.45;30.50;;;;;;;3.50;100.00;100174.50;10479267;28;20523;-72
2023/12/23 05:14:35;;;;;;;32.58;30.75;;;;;;;3.54;100.00;100184.72;10446023;28;20492;-70
2023/12/23 05:19:39;;;;;;;29.80;28.17;;;;;;;3.47;100.00;100161.34;10463142;28;21147;-73
2023/12/23 05:24:41;;;;;;;30.77;29.10;;;;;;;3.41;100.00;100133.13;10478584;28;20048;-72
2023/12/23 05:29:42;;;;;;;28.60;26.88;;;;;;;3.48;100.00;100143.97;10445253;28;20524;-72
2023/12/23 05:34:42;;;;;;;29.25;27.70;;;;;;;3.42;100.00;100123.94;10462245;28;20033;-72
2023/12/23 05:39:47;;;;;;;28.85;27.20;;;;;;;3.49;100.00;100135.56;10443134;28;20041;-75
2023/12/23 05:44:48;;;;;;;27.85;26.45;;;;;;;3.40;100.00;100099.66;10441669;28;20033;-71
2023/12/23 05:49:48;;;;;;;31.30;29.38;;;;;;;3.46;100.00;100102.56;10463110;28;20037;-72
2023/12/23 05:54:49;;;;;;;31.88;30.10;;;;;;;3.44;100.00;100100.88;10462299;28;20037;-71
2023/12/23 05:59:49;;;;;;;30.08;28.52;;;;;;;3.47;100.00;100105.03;10460782;28;20044;-72
2023/12/23 06:04:50;;;;;;;30.45;28.70;;;;;;;3.42;100.00;100091.28;10460903;28;20124;-73
2023/12/23 06:09:50;;;;;;;31.38;29.92;;;;;;;3.48;100.00;100105.88;10460659;28;20071;-73
2023/12/23 06:14:52;;;;;;;29.90;28.30;;;;;;;3.46;100.00;100102.56;10476933;28;20040;-72
2023/12/23 06:19:52;;;;;;;29.17;27.63;;;;;;;3.36;100.00;100082.13;10476981;28;20437;-72
2023/12/23 06:24:53;;;;;;;29.35;27.52;;;;;;;3.41;100.00;100089.59;10461224;28;20033;-72
2023/12/23 06:29:53;;;;;;;28.38;26.80;;;;;;;3.44;100.00;100095.44;10459684;28;20059;-71
2023/12/23 06:34:54;;;;;;;27.48;25.90;;;;;;;3.43;100.00;100092.94;10460612;28;20037;-72
2023/12/23 06:39:54;;;;;;;27.75;26.20;;;;;;;3.06;100.00;100043.97;10461015;28;20037;-72
2023/12/23 06:44:55;;;;;;;29.08;27.40;;;;;;;3.42;100.00;100070.34;10461358;28;20040;-72
2023/12/23 06:49:55;;;;;;;28.40;26.75;;;;;;;3.41;100.00;100057.81;10460983;28;20037;-72
2023/12/23 06:54:56;;;;;;;27.95;26.38;;;;;;;3.57;100.00;100085.44;10461916;28;20490;-72
2023/12/23 06:59:58;;;;;;;27.77;26.23;;;;;;;3.49;100.00;100088.47;10460643;28;20040;-72
2023/12/23 07:04:59;;;;;;;26.95;25.52;;;;;;;2.85;100.00;99981.84;10456459;28;20041;-73
2023/12/23 07:09:59;;;;;;;27.15;25.42;;;;;;;3.44;100.00;100084.53;10458355;28;20068;-73
2023/12/23 07:15:00;;;;;;;26.05;24.80;;;;;;;3.45;100.00;100085.38;10475236;28;20056;-72
2023/12/23 07:20:00;;;;;;;26.70;25.17;;;;;;;3.46;100.00;100094.38;10460018;28;20767;-72
2023/12/23 07:25:01;;;;;;;29.05;27.30;;;;;;;3.27;100.00;100050.84;10460937;28;20110;-68
2023/12/23 07:30:03;;;;;;;27.40;26.20;;;;;;;3.43;100.00;100095.66;10457862;28;20120;-72
2023/12/23 07:35:04;;;;;;;28.65;27.27;;;;;;;3.42;100.00;100094.00;10449917;28;20044;-72
2023/12/23 07:40:05;;;;;;;28.90;27.25;;;;;;;3.49;100.00;100099.34;10457998;28;20064;-72
2023/12/23 07:45:06;;;;;;;27.75;26.25;;;;;;;3.14;100.00;100051.84;10459307;28;20127;-72
2023/12/23 07:50:07;;;;;;;30.05;28.65;;;;;;;3.52;100.00;100107.09;10459421;28;20037;-72
2023/12/23 07:55:07;;;;;;;28.73;27.13;;;;;;;3.51;100.00;100119.00;10460742;28;20052;-71
2023/12/23 08:00:09;;;;;;;28.10;26.80;;;;;;;3.49;100.00;100119.22;10459382;28;20048;-71
2023/12/23 08:05:10;;;;;;;29.75;28.25;;;;;;;3.50;100.00;100125.53;10457363;28;20515;-72
2023/12/23 08:10:10;;;;;;;30.25;28.65;;;;;;;3.55;100.00;100122.94;10453401;28;20048;-72
2023/12/23 08:15:11;;;;;;;29.85;28.20;;;;;;;3.41;100.00;100093.19;10457654;28;20044;-72
2023/12/23 08:20:11;;;;;;;30.60;28.45;;;;;;;3.53;100.00;100116.91;10457781;28;20033;-72
2023/12/23 08:25:12;;;;;;;31.00;29.05;;;;;;;3.56;100.00;100136.34;10459128;28;20061;-72
2023/12/23 08:30:12;;;;;;;30.08;28.50;;;;;;;3.56;100.00;100147.22;10457750;28;20045;-72
2023/12/23 08:35:14;;;;;;;30.90;29.30;;;;;;;3.56;100.00;100157.28;10456855;28;20048;-72
2023/12/23 08:40:14;;;;;;;30.55;28.95;;;;;;;3.59;100.00;100151.38;10458199;28;20104;-72
2023/12/23 08:45:15;;;;;;;31.98;30.17;;;;;;;3.55;100.00;100128.38;10462558;28;20582;-72
2023/12/23 08:50:15;;;;;;;31.67;29.60;;;;;;;3.35;100.00;100098.66;10464390;28;20486;-72
2023/12/23 08:55:15;;;;;;;31.60;30.00;;;;;;;3.58;100.00;100156.00;10481282;28;20475;-72
2023/12/23 09:00:16;;;;;;;30.00;28.50;;;;;;;3.65;100.00;100161.38;10462604;28;20037;-72
2023/12/23 09:05:17;;;;;;;30.83;28.83;;;;;;;3.21;100.00;100106.97;10463579;28;20336;-72
2023/12/23 09:10:17;;;;;;;29.70;28.30;;;;;;;3.72;100.00;100181.19;10463239;28;20033;-72
2023/12/23 09:15:18;;;;;;;28.67;27.38;;;;;;;3.68;100.00;100185.44;10462141;28;20095;-72
2023/12/23 09:20:18;;;;;;;33.90;31.60;;;;;;;3.36;100.00;100131.09;10464973;28;20049;-71
2023/12/23 09:25:18;;;;;;;36.22;33.20;;;;;;;3.77;100.00;100185.94;10465325;28;20045;-72
2023/12/23 09:30:19;;;;;;;32.05;30.10;;;;;;;3.77;100.00;100203.13;10462752;28;20041;-72
2023/12/23 09:35:19;;;;;;;31.70;30.10;;;;;;;3.80;100.00;100189.06;10460953;28;20041;-72
2023/12/23 09:40:20;;;;;;;31.17;29.58;;;;;;;3.76;100.00;100185.13;10462393;28;20052;-72
2023/12/23 09:45:20;;;;;;;30.90;29.38;;;;;;;3.66;100.00;100176.66;10461121;28;20048;-72
2023/12/23 09:50:21;;;;;;;30.92;29.15;;;;;;;3.81;100.00;100189.88;10461072;28;20044;-72
2023/12/23 09:55:21;;;;;;;31.58;29.85;;;;;;;3.93;100.00;100196.25;10461838;28;20041;-72
2023/12/23 10:00:22;;;;;;;32.92;31.30;;;;;;;3.91;100.00;100197.53;10460926;28;20048;-71
2023/12/23 10:05:22;;;;;;;33.80;32.15;;;;;;;3.93;100.00;100209.03;10459991;28;20049;-69
2023/12/23 10:10:24;;;;;;;33.05;31.50;;;;;;;3.98;100.00;100210.00;10455830;28;20432;-72
2023/12/23 10:15:24;;;;;;;33.90;32.08;;;;;;;3.95;100.00;100209.59;10460277;28;20037;-72
2023/12/23 10:20:25;;;;;;;33.53;31.95;;;;;;;4.12;100.00;100207.94;10459514;28;20547;-72
2023/12/23 10:25:26;;;;;;;33.95;32.35;;;;;;;4.06;100.00;100194.44;10443511;28;20444;-72
2023/12/23 10:30:26;;;;;;;34.78;32.83;;;;;;;4.21;100.00;100225.63;10458784;28;20045;-72
2023/12/23 10:35:26;;;;;;;37.67;35.55;;;;;;;4.02;100.00;100199.47;10457810;28;20048;-72
2023/12/23 10:40:27;;;;;;;35.35;33.75;;;;;;;3.89;100.00;100183.31;10457017;28;20091;-72
2023/12/23 10:45:28;;;;;;;34.08;32.30;;;;;;;4.22;100.00;100221.06;10455805;28;20029;-72
2023/12/23 10:50:29;;;;;;;35.33;33.63;;;;;;;4.21;100.00;100222.91;10458492;28;20051;-72
2023/12/23 10:55:29;;;;;;;34.53;32.83;;;;;;;4.36;100.00;100233.44;10459467;28;20102;-71
2023/12/23 11:00:30;;;;;;;33.47;31.77;;;;;;;4.38;100.00;100214.97;10459450;28;20072;-72
2023/12/23 11:05:34;;;;;;;34.25;32.65;;;;;;;4.33;100.00;100208.53;10456090;28;20358;-72
2023/12/23 11:10:35;;;;;;;35.55;33.75;;;;;;;4.35;100.00;100215.41;10440724;28;20041;-72
2023/12/23 11:15:39;;;;;;;35.25;33.55;;;;;;;4.40;100.00;100229.22;10440288;28;20037;-72
2023/12/23 11:20:43;;;;;;;34.70;32.90;;;;;;;4.32;100.00;100224.06;10457937;28;20041;-72
2023/12/23 11:25:43;;;;;;;36.33;34.35;;;;;;;4.34;100.00;100202.00;10456317;28;20574;-72
2023/12/23 11:30:57;;;;;;;35.55;33.55;;;;;;;4.50;100.00;100214.19;10456466;28;20339;-72
2023/12/23 11:35:58;;;;;;;36.72;34.70;;;;;;;4.51;100.00;100211.22;10439886;28;20044;-72
2023/12/23 11:40:59;;;;;;;36.28;34.42;;;;;;;4.38;100.00;100204.06;10439430;28;20108;-72
2023/12/23 11:46:00;;;;;;;36.80;34.90;;;;;;;4.55;100.00;100220.63;10439638;28;20045;-72
2023/12/23 11:51:00;;;;;;;38.70;36.70;;;;;;;4.59;100.00;100230.00;10456384;28;20049;-72
2023/12/23 11:56:01;;;;;;;40.42;38.38;;;;;;;4.59;100.00;100231.91;10452381;28;20037;-72
2023/12/23 12:01:01;;;;;;;34.75;33.15;;;;;;;4.55;100.00;100226.06;10453803;28;20114;-72
2023/12/23 12:06:03;;;;;;;33.70;32.00;;;;;;;4.61;100.00;100227.00;10455073;28;20051;-72
2023/12/23 12:11:03;;;;;;;32.90;31.30;;;;;;;4.58;100.00;100217.41;10456919;28;20041;-72
2023/12/23 12:16:04;;;;;;;36.13;34.38;;;;;;;4.72;100.00;100231.69;10460631;28;20044;-72
2023/12/23 12:21:05;;;;;;;37.95;35.95;;;;;;;4.70;100.00;100219.38;10482543;28;20045;-72
2023/12/23 12:26:07;;;;;;;36.92;35.22;;;;;;;4.82;100.00;100231.16;10465614;28;20044;-72
2023/12/23 12:31:13;;;;;;;35.83;34.03;;;;;;;4.92;100.00;100245.06;10461873;28;20053;-71
2023/12/23 12:36:15;;;;;;;35.83;34.13;;;;;;;4.93;100.00;100229.50;10461679;28;20052;-72
2023/12/23 12:41:15;;;;;;;35.33;33.72;;;;;;;4.88;100.00;100241.13;10462171;28;20098;-72
2023/12/23 12:46:16;;;;;;;35.60;33.90;;;;;;;4.96;100.00;100246.25;10464073;28;20041;-72
2023/12/23 12:51:16;;;;;;;36.22;34.55;;;;;;;5.01;100.00;100234.63;10462154;28;20037;-72
2023/12/23 12:56:20;;;;;;;37.65;35.85;;;;;;;5.01;100.00;100251.84;10478388;28;20029;-72
2023/12/23 13:01:21;;;;;;;38.75;36.85;;;;;;;4.98;100.00;100240.53;10460962;28;20037;-72
2023/12/23 13:06:21;;;;;;;39.15;37.13;;;;;;;5.00;100.00;100261.09;10460990;28;20040;-72
2023/12/23 13:11:22;;;;;;;39.28;37.20;;;;;;;4.80;100.00;100219.63;10460193;28;20048;-71
2023/12/23 13:16:23;;;;;;;38.28;36.45;;;;;;;4.97;100.00;100261.53;10462173;28;20048;-72
2023/12/23 13:21:24;;;;;;;36.67;34.85;;;;;;;4.98;100.00;100271.41;10460582;28;20041;-73
2023/12/23 13:26:25;;;;;;;33.90;32.30;;;;;;;4.92;100.00;100269.59;10457016;28;20036;-72
2023/12/23 13:31:25;;;;;;;34.28;32.58;;;;;;;4.95;100.00;100269.13;10461283;28;20120;-72
2023/12/23 13:36:26;;;;;;;34.85;33.15;;;;;;;4.95;100.00;100251.94;10475180;28;20045;-72
2023/12/23 13:41:28;;;;;;;36.13;34.33;;;;;;;4.91;100.00;100248.84;10459543;28;20472;-71
2023/12/23 13:46:28;;;;;;;35.45;33.50;;;;;;;5.01;100.00;100265.47;10475241;28;20049;-71
2023/12/23 13:51:29;;;;;;;35.90;34.00;;;;;;;4.83;100.00;100270.97;10460461;28;20504;-73
2023/12/23 13:56:29;;;;;;;37.20;35.22;;;;;;;4.85;100.00;100269.69;10459679;28;20045;-72
2023/12/23 14:01:30;;;;;;;36.72;34.75;;;;;;;4.80;100.00;100260.56;10459888;28;20041;-72
2023/12/23 14:06:30;;;;;;;35.85;33.95;;;;;;;4.85;100.00;100264.22;10460952;28;20063;-72
2023/12/23 14:11:31;;;;;;;36.85;34.95;;;;;;;4.89;100.00;100275.50;10461184;28;20041;-72
2023/12/23 14:16:32;;;;;;;36.17;34.17;;;;;;;4.91;100.00;100273.38;10462066;28;20041;-72
2023/12/23 14:21:33;;;;;;;37.72;35.63;;;;;;;4.95;100.00;100274.59;10458718;28;20041;-72
2023/12/23 14:26:33;;;;;;;36.58;34.33;;;;;;;4.97;100.00;100269.72;10460522;28;20091;-71
2023/12/23 14:31:33;;;;;;;34.90;32.75;;;;;;;4.91;100.00;100240.66;10459613;28;20040;-72
2023/12/23 14:36:34;;;;;;;35.10;32.92;;;;;;;4.91;100.00;100229.75;10456676;28;20114;-74
2023/12/23 14:41:34;;;;;;;35.03;32.75;;;;;;;5.12;100.00;100276.66;10460419;28;20037;-74
2023/12/23 14:46:36;;;;;;;33.88;31.35;;;;;;;5.20;100.00;100255.31;10459854;28;20060;-74
2023/12/23 14:51:36;;;;;;;32.72;30.27;;;;;;;5.31;100.00;100259.13;10460521;28;20048;-73
2023/12/23 14:56:37;;;;;;;34.58;32.05;;;;;;;5.56;100.00;100266.28;10474971;28;20594;-73
2023/12/23 15:01:37;;;;;;;36.92;33.60;;;;;;;5.82;100.00;100257.63;10456679;28;20040;-73
2023/12/23 15:06:38;;;;;;;42.03;35.30;;;;;;;6.01;100.00;100254.78;10458049;28;20040;-74
2023/12/23 15:11:38;;;;;;;39.85;35.65;;;;;;;6.30;100.00;100257.59;10460692;28;20717;-73
2023/12/23 15:16:39;;;;;;;46.20;35.83;;;;;;;6.66;100.00;100240.84;10457602;28;20412;-73
2023/12/23 15:21:39;;;;;;;56.42;40.45;;;;;;;7.06;100.00;100223.50;10458190;28;20094;-73
2023/12/23 15:26:40;;;;;;;48.58;42.13;;;;;;;6.83;100.00;100175.22;10458396;28;20048;-73
2023/12/23 15:31:40;;;;;;;44.00;39.47;;;;;;;7.51;100.00;100240.97;10448143;28;20047;-73
2023/12/23 15:36:41;;;;;;;47.10;42.78;;;;;;;7.59;100.00;100258.91;10457107;28;20071;-70
2023/12/23 15:41:41;;;;;;;50.25;46.10;;;;;;;7.59;100.00;100237.81;10455182;28;20109;-73
2023/12/23 15:46:42;;;;;;;53.67;48.33;;;;;;;7.65;100.00;100253.25;10458717;28;20052;-71
2023/12/23 15:51:42;;;;;;;52.30;48.20;;;;;;;7.58;100.00;100227.09;10456362;28;20160;-73
2023/12/23 15:56:43;;;;;;;53.95;49.53;;;;;;;7.66;100.00;100243.09;10458100;28;20033;-71
2023/12/23 16:01:43;;;;;;;53.60;48.72;;;;;;;7.74;100.00;100255.56;10458517;28;20386;-71
2023/12/23 16:06:44;;;;;;;49.70;45.70;;;;;;;7.77;100.00;100249.56;10456760;28;20568;-71
2023/12/23 16:11:44;;;;;;;48.03;44.38;;;;;;;7.78;100.00;100268.50;10458124;28;20071;-73
2023/12/23 16:16:45;;;;;;;51.95;47.17;;;;;;;7.82;100.00;100263.34;10458955;28;20511;-73
2023/12/23 16:21:45;;;;;;;50.30;45.90;;;;;;;7.80;100.00;100263.59;10454667;28;20037;-73
2023/12/23 16:26:48;;;;;;;49.35;45.00;;;;;;;7.82;100.00;100263.34;10458321;28;20033;-72
2023/12/23 16:31:48;;;;;;;49.55;45.00;;;;;;;7.83;100.00;100243.94;10457772;28;20052;-71
2023/12/23 16:36:49;;;;;;;48.03;44.40;;;;;;;7.86;100.00;100251.63;10454875;28;20033;-73
2023/12/23 16:41:50;;;;;;;49.05;44.72;;;;;;;7.56;100.00;100199.94;10457422;28;20033;-72
2023/12/23 16:46:50;;;;;;;47.70;43.42;;;;;;;7.85;100.00;100239.03;10456767;28;20029;-72
2023/12/23 16:51:51;;;;;;;49.80;45.08;;;;;;;7.39;100.00;100160.81;10455117;28;20060;-73
2023/12/23 16:56:51;;;;;;;47.20;43.15;;;;;;;7.93;100.00;100251.44;10452472;28;20029;-72
2023/12/23 17:01:52;;;;;;;51.22;46.60;;;;;;;7.93;100.00;100247.88;10459197;28;20045;-72
2023/12/23 17:06:52;;;;;;;52.13;46.88;;;;;;;7.95;100.00;100234.75;10446793;28;20439;-73
2023/12/23 17:11:53;;;;;;;52.40;47.17;;;;;;;7.94;100.00;100241.31;10460881;28;20469;-71
2023/12/23 17:16:53;;;;;;;50.90;46.55;;;;;;;7.91;100.00;100225.38;10460283;28;20033;-72
2023/12/23 17:21:53;;;;;;;52.40;47.55;;;;;;;7.94;100.00;100227.59;10461543;28;20068;-72
2023/12/23 17:26:54;;;;;;;49.25;45.42;;;;;;;7.93;100.00;100226.78;10460796;28;20041;-72
2023/12/23 17:31:55;;;;;;;47.90;44.00;;;;;;;7.95;100.00;100241.06;10460920;28;20045;-72
2023/12/23 17:36:56;;;;;;;51.22;46.42;;;;;;;7.93;100.00;100240.50;10461207;28;20041;-72
2023/12/23 17:41:59;;;;;;;49.33;45.58;;;;;;;7.96;100.00;100236.41;10462042;28;20049;-72
2023/12/23 17:47:00;;;;;;;49.55;45.22;;;;;;;7.96;100.00;100242.75;10460930;28;20037;-72
2023/12/23 17:52:01;;;;;;;49.25;44.70;;;;;;;7.98;100.00;100234.25;10435373;28;20044;-71
2023/12/23 17:57:01;;;;;;;48.17;44.53;;;;;;;8.00;100.00;100243.03;10460888;28;20071;-71
2023/12/23 18:02:02;;;;;;;51.33;46.92;;;;;;;7.97;100.00;100246.31;10459747;28;20037;-72
2023/12/23 18:07:02;;;;;;;47.13;43.65;;;;;;;8.01;100.00;100240.06;10444271;28;20068;-72
2023/12/23 18:12:03;;;;;;;49.78;45.50;;;;;;;8.03;100.00;100248.03;10462641;28;20045;-71
2023/12/23 18:17:04;;;;;;;49.72;45.63;;;;;;;8.05;100.00;100259.56;10461746;28;20040;-72
2023/12/23 18:22:05;;;;;;;50.75;47.22;;;;;;;8.03;100.00;100248.03;10411905;28;20044;-73
2023/12/23 18:27:06;;;;;;;53.10;48.45;;;;;;;7.89;100.00;100231.94;10417663;28;20042;-72
2023/12/23 18:32:06;;;;;;;50.22;46.95;;;;;;;8.08;100.00;100250.84;10434884;28;20112;-72
2023/12/23 18:37:07;;;;;;;54.95;50.38;;;;;;;8.03;100.00;100245.28;10436895;28;20044;-72
2023/12/23 18:42:08;;;;;;;51.72;47.97;;;;;;;8.05;100.00;100240.38;10459472;28;20105;-72
2023/12/23 18:47:08;;;;;;;51.17;47.25;;;;;;;8.01;100.00;100236.50;10461111;28;20048;-72
2023/12/23 18:52:08;;;;;;;51.13;46.88;;;;;;;8.03;100.00;100243.38;10461161;28;20075;-72
2023/12/23 18:57:09;;;;;;;51.08;47.00;;;;;;;7.95;100.00;100234.75;10460950;28;20056;-70
2023/12/23 19:02:11;;;;;;;51.45;47.70;;;;;;;8.08;100.00;100250.84;10461359;28;20033;-72
2023/12/23 19:07:11;;;;;;;50.97;46.95;;;;;;;8.03;100.00;100242.56;10459809;28;20075;-71
2023/12/23 19:12:12;;;;;;;52.58;47.78;;;;;;;8.05;100.00;100234.91;10459930;28;20409;-72
2023/12/23 19:17:12;;;;;;;51.45;47.75;;;;;;;7.99;100.00;100214.00;10458784;28;20689;-73
2023/12/23 19:22:13;;;;;;;52.33;47.42;;;;;;;8.07;100.00;100233.56;10457048;28;20515;-72
2023/12/23 19:27:13;;;;;;;51.28;47.90;;;;;;;8.08;100.00;100245.34;10457879;28;20040;-72
2023/12/23 19:32:14;;;;;;;54.85;50.47;;;;;;;7.94;100.00;100233.09;10459045;28;20041;-72
2023/12/23 19:37:14;;;;;;;54.58;50.28;;;;;;;8.03;100.00;100245.28;10460887;28;20475;-72
2023/12/23 19:42:15;;;;;;;56.72;52.35;;;;;;;7.69;100.00;100190.56;10460265;28;20048;-74
2023/12/23 19:47:15;;;;;;;58.63;53.47;;;;;;;8.02;100.00;100229.91;10459293;28;20045;-72
2023/12/23 19:52:16;;;;;;;53.65;49.63;;;;;;;7.68;100.00;100166.97;10458188;28;20097;-72
2023/12/23 19:57:16;;;;;;;54.17;50.90;;;;;;;7.94;100.00;100189.22;10458316;28;20033;-72
2023/12/23 20:02:16;;;;;;;52.70;48.95;;;;;;;8.08;100.00;100221.53;10458886;28;20060;-72
2023/12/23 20:07:17;;;;;;;54.47;50.63;;;;;;;8.10;100.00;100243.19;10457883;28;20037;-73
2023/12/23 20:12:17;;;;;;;55.50;51.85;;;;;;;8.17;100.00;100246.59;10456917;28;20041;-72
2023/12/23 20:17:18;;;;;;;55.45;51.65;;;;;;;8.09;100.00;100241.53;10457130;28;20040;-72
2023/12/23 20:22:18;;;;;;;53.70;49.95;;;;;;;8.09;100.00;100236.06;10458130;28;20053;-71
2023/12/23 20:27:19;;;;;;;53.38;50.08;;;;;;;8.16;100.00;100246.84;10456330;28;20037;-72
2023/12/23 20:32:19;;;;;;;57.25;53.50;;;;;;;8.16;100.00;100244.09;10458103;28;20056;-72
2023/12/23 20:37:20;;;;;;;53.42;50.10;;;;;;;7.79;100.00;100182.50;10420389;28;20041;-72
2023/12/23 20:42:21;;;;;;;51.53;47.85;;;;;;;8.13;100.00;100252.84;10448405;28;20044;-72
2023/12/23 20:47:21;;;;;;;49.88;46.88;;;;;;;8.08;100.00;100240.72;10462487;28;20083;-73
2023/12/23 20:52:22;;;;;;;52.53;49.13;;;;;;;8.07;100.00;100216.28;10465178;28;20098;-73
2023/12/23 20:57:22;;;;;;;50.90;47.63;;;;;;;7.99;100.00;100214.81;10464639;28;20045;-73
2023/12/23 21:02:23;;;;;;;50.40;47.63;;;;;;;8.08;100.00;100234.38;10479916;28;20033;-72
2023/12/23 21:07:23;;;;;;;47.80;45.00;;;;;;;8.07;100.00;100228.09;10465989;28;20293;-73
2023/12/23 21:12:24;;;;;;;46.50;43.58;;;;;;;7.79;100.00;100177.00;10463846;28;20033;-73
2023/12/23 21:17:25;;;;;;;48.45;45.28;;;;;;;8.05;100.00;100200.09;10462383;28;20041;-72
2023/12/23 21:22:25;;;;;;;49.40;46.30;;;;;;;8.13;100.00;100219.94;10464304;28;20087;-68
2023/12/23 21:27:25;;;;;;;52.22;49.20;;;;;;;8.13;100.00;100214.44;10445341;28;20029;-72
2023/12/23 21:32:26;;;;;;;51.97;48.33;;;;;;;8.05;100.00;100196.53;10462663;28;20044;-72
2023/12/23 21:37:26;;;;;;;50.33;46.80;;;;;;;8.11;100.00;100200.16;10465659;28;20049;-71
2023/12/23 21:42:27;;;;;;;50.03;46.92;;;;;;;8.05;100.00;100199.25;10463990;28;20044;-73
2023/12/23 21:47:27;;;;;;;50.90;47.33;;;;;;;8.13;100.00;100208.97;10461860;28;20040;-73
2023/12/23 21:52:28;;;;;;;49.30;46.47;;;;;;;8.02;100.00;100181.41;10442664;28;20057;-73
2023/12/23 21:57:28;;;;;;;51.22;47.42;;;;;;;8.14;100.00;100211.44;10476023;28;20476;-74
2023/12/23 22:02:29;;;;;;;50.40;46.47;;;;;;;8.04;100.00;100189.38;10459775;28;20044;-73
2023/12/23 22:07:29;;;;;;;48.92;45.85;;;;;;;7.74;100.00;100152.25;10443258;28;20045;-72
2023/12/23 22:12:30;;;;;;;49.15;45.92;;;;;;;7.75;100.00;100169.53;10462086;28;20041;-73
2023/12/23 22:17:30;;;;;;;47.78;44.78;;;;;;;7.89;100.00;100190.00;10458574;28;20045;-73
2023/12/23 22:22:31;;;;;;;50.63;46.72;;;;;;;7.99;100.00;100214.00;10453915;28;20040;-72
2023/12/23 22:27:31;;;;;;;49.50;46.35;;;;;;;7.85;100.00;100191.59;10459454;28;20037;-73
2023/12/23 22:32:32;;;;;;;52.03;48.25;;;;;;;8.00;100.00;100204.66;10460851;28;20045;-72